sensor_id;sensor_type;location;lat;lon;timestamp;P1;durP1;ratioP1;P2;durP2;ratioP2
16826;SDS011;8530;49.540;8.576;2022-08-19T00:00:50;19.80;;;16.00;;
16826;SDS011;8530;49.540;8.576;2022-08-19T00:03:17;19.70;;;15.30;;
16826;SDS011;8530;49.540;8.576;2022-08-19T00:05:43;20.27;;;15.83;;
16826;SDS011;8530;49.540;8.576;2022-08-19T00:08:10;25.00;;;17.57;;
16826;SDS011;8530;49.540;8.576;2022-08-19T00:10:38;18.30;;;16.30;;
16826;SDS011;8530;49.540;8.576;2022-08-19T00:13:05;16.63;;;14.70;;
16826;SDS011;8530;49.540;8.576;2022-08-19T00:15:32;19.87;;;16.53;;
16826;SDS011;8530;49.540;8.576;2022-08-19T00:17:59;16.77;;;15.00;;
16826;SDS011;8530;49.540;8.576;2022-08-19T00:20:25;20.80;;;16.67;;
16826;SDS011;8530;49.540;8.576;2022-08-19T00:22:52;19.50;;;17.47;;
16826;SDS011;8530;49.540;8.576;2022-08-19T00:25:19;26.83;;;17.30;;
16826;SDS011;8530;49.540;8.576;2022-08-19T00:27:47;20.40;;;16.20;;
16826;SDS011;8530;49.540;8.576;2022-08-19T00:30:14;19.50;;;17.30;;
16826;SDS011;8530;49.540;8.576;2022-08-19T00:32:40;32.13;;;19.67;;
16826;SDS011;8530;49.540;8.576;2022-08-19T00:35:07;19.30;;;16.47;;
16826;SDS011;8530;49.540;8.576;2022-08-19T00:37:35;21.90;;;17.70;;
16826;SDS011;8530;49.540;8.576;2022-08-19T00:40:03;19.53;;;16.40;;
16826;SDS011;8530;49.540;8.576;2022-08-19T00:42:30;19.97;;;17.73;;
16826;SDS011;8530;49.540;8.576;2022-08-19T00:44:59;23.50;;;19.73;;
16826;SDS011;8530;49.540;8.576;2022-08-19T00:47:25;18.10;;;16.07;;
16826;SDS011;8530;49.540;8.576;2022-08-19T00:49:53;25.13;;;17.90;;
16826;SDS011;8530;49.540;8.576;2022-08-19T00:52:23;23.07;;;19.07;;
16826;SDS011;8530;49.540;8.576;2022-08-19T00:54:54;19.33;;;17.10;;
16826;SDS011;8530;49.540;8.576;2022-08-19T00:57:22;20.57;;;17.17;;
16826;SDS011;8530;49.540;8.576;2022-08-19T00:59:55;22.43;;;17.77;;
16826;SDS011;8530;49.540;8.576;2022-08-19T01:02:25;21.83;;;18.40;;
16826;SDS011;8530;49.540;8.576;2022-08-19T01:04:53;23.20;;;18.80;;
16826;SDS011;8530;49.540;8.576;2022-08-19T01:07:20;23.60;;;18.07;;
16826;SDS011;8530;49.540;8.576;2022-08-19T01:09:47;23.23;;;19.87;;
16826;SDS011;8530;49.540;8.576;2022-08-19T01:12:14;23.47;;;19.17;;
16826;SDS011;8530;49.540;8.576;2022-08-19T01:14:41;23.17;;;19.17;;
16826;SDS011;8530;49.540;8.576;2022-08-19T01:17:09;23.27;;;19.23;;
16826;SDS011;8530;49.540;8.576;2022-08-19T01:19:39;24.03;;;21.43;;
16826;SDS011;8530;49.540;8.576;2022-08-19T01:22:08;19.90;;;17.70;;
16826;SDS011;8530;49.540;8.576;2022-08-19T01:24:42;21.17;;;18.60;;
16826;SDS011;8530;49.540;8.576;2022-08-19T01:27:09;25.47;;;18.93;;
16826;SDS011;8530;49.540;8.576;2022-08-19T01:29:37;23.27;;;19.90;;
16826;SDS011;8530;49.540;8.576;2022-08-19T01:32:05;24.17;;;20.67;;
16826;SDS011;8530;49.540;8.576;2022-08-19T01:34:32;21.33;;;18.80;;
16826;SDS011;8530;49.540;8.576;2022-08-19T01:36:59;20.93;;;18.77;;
16826;SDS011;8530;49.540;8.576;2022-08-19T01:39:32;23.50;;;18.97;;
16826;SDS011;8530;49.540;8.576;2022-08-19T01:42:01;20.63;;;18.00;;
16826;SDS011;8530;49.540;8.576;2022-08-19T01:44:29;21.73;;;19.43;;
16826;SDS011;8530;49.540;8.576;2022-08-19T01:46:56;20.47;;;18.37;;
16826;SDS011;8530;49.540;8.576;2022-08-19T01:49:24;21.43;;;18.43;;
16826;SDS011;8530;49.540;8.576;2022-08-19T01:51:51;20.83;;;18.40;;
16826;SDS011;8530;49.540;8.576;2022-08-19T01:54:19;27.27;;;17.80;;
16826;SDS011;8530;49.540;8.576;2022-08-19T01:56:46;20.73;;;18.63;;
16826;SDS011;8530;49.540;8.576;2022-08-19T01:59:16;20.73;;;18.60;;
16826;SDS011;8530;49.540;8.576;2022-08-19T02:01:46;20.40;;;17.47;;
16826;SDS011;8530;49.540;8.576;2022-08-19T02:04:13;21.23;;;18.93;;
16826;SDS011;8530;49.540;8.576;2022-08-19T02:06:39;23.57;;;20.13;;
16826;SDS011;8530;49.540;8.576;2022-08-19T02:09:06;21.27;;;18.83;;
16826;SDS011;8530;49.540;8.576;2022-08-19T02:11:34;26.50;;;19.93;;
16826;SDS011;8530;49.540;8.576;2022-08-19T02:14:04;21.20;;;18.77;;
16826;SDS011;8530;49.540;8.576;2022-08-19T02:16:34;21.33;;;19.13;;
16826;SDS011;8530;49.540;8.576;2022-08-19T02:19:01;23.37;;;20.37;;
16826;SDS011;8530;49.540;8.576;2022-08-19T02:21:29;22.30;;;18.20;;
16826;SDS011;8530;49.540;8.576;2022-08-19T02:23:56;20.33;;;18.33;;
16826;SDS011;8530;49.540;8.576;2022-08-19T02:26:24;22.87;;;20.47;;
16826;SDS011;8530;49.540;8.576;2022-08-19T02:28:52;20.13;;;18.20;;
16826;SDS011;8530;49.540;8.576;2022-08-19T02:31:19;22.77;;;19.40;;
16826;SDS011;8530;49.540;8.576;2022-08-19T02:33:49;25.20;;;19.33;;
16826;SDS011;8530;49.540;8.576;2022-08-19T02:36:17;21.97;;;19.67;;
16826;SDS011;8530;49.540;8.576;2022-08-19T02:38:45;22.90;;;20.50;;
16826;SDS011;8530;49.540;8.576;2022-08-19T02:41:13;22.73;;;20.20;;
16826;SDS011;8530;49.540;8.576;2022-08-19T02:43:42;23.60;;;20.17;;
16826;SDS011;8530;49.540;8.576;2022-08-19T02:46:13;31.10;;;21.47;;
16826;SDS011;8530;49.540;8.576;2022-08-19T02:48:42;22.97;;;19.20;;
16826;SDS011;8530;49.540;8.576;2022-08-19T02:51:14;21.23;;;18.50;;
16826;SDS011;8530;49.540;8.576;2022-08-19T02:53:42;21.50;;;19.17;;
16826;SDS011;8530;49.540;8.576;2022-08-19T02:56:09;22.27;;;19.97;;
16826;SDS011;8530;49.540;8.576;2022-08-19T02:58:36;25.00;;;22.33;;
16826;SDS011;8530;49.540;8.576;2022-08-19T03:01:02;33.03;;;20.37;;
16826;SDS011;8530;49.540;8.576;2022-08-19T03:03:29;20.07;;;17.43;;
16826;SDS011;8530;49.540;8.576;2022-08-19T03:06:03;24.03;;;19.90;;
16826;SDS011;8530;49.540;8.576;2022-08-19T03:08:33;22.93;;;19.57;;
16826;SDS011;8530;49.540;8.576;2022-08-19T03:11:00;23.40;;;20.90;;
16826;SDS011;8530;49.540;8.576;2022-08-19T03:13:26;25.50;;;21.13;;
16826;SDS011;8530;49.540;8.576;2022-08-19T03:15:53;22.83;;;19.73;;
16826;SDS011;8530;49.540;8.576;2022-08-19T03:18:20;23.03;;;19.07;;
16826;SDS011;8530;49.540;8.576;2022-08-19T03:20:48;22.00;;;17.80;;
16826;SDS011;8530;49.540;8.576;2022-08-19T03:23:17;21.80;;;19.47;;
16826;SDS011;8530;49.540;8.576;2022-08-19T03:25:46;21.83;;;19.30;;
16826;SDS011;8530;49.540;8.576;2022-08-19T03:28:15;21.97;;;18.90;;
16826;SDS011;8530;49.540;8.576;2022-08-19T03:30:43;22.53;;;19.90;;
16826;SDS011;8530;49.540;8.576;2022-08-19T03:33:22;26.83;;;19.70;;
16826;SDS011;8530;49.540;8.576;2022-08-19T03:35:59;21.70;;;19.40;;
16826;SDS011;8530;49.540;8.576;2022-08-19T03:38:30;27.50;;;21.37;;
16826;SDS011;8530;49.540;8.576;2022-08-19T03:40:58;24.90;;;22.20;;
16826;SDS011;8530;49.540;8.576;2022-08-19T03:43:28;24.90;;;20.10;;
16826;SDS011;8530;49.540;8.576;2022-08-19T03:46:05;25.57;;;23.03;;
16826;SDS011;8530;49.540;8.576;2022-08-19T03:48:33;23.13;;;20.70;;
16826;SDS011;8530;49.540;8.576;2022-08-19T03:51:01;23.00;;;20.60;;
16826;SDS011;8530;49.540;8.576;2022-08-19T03:53:28;22.77;;;19.83;;
16826;SDS011;8530;49.540;8.576;2022-08-19T03:55:57;27.33;;;21.07;;
16826;SDS011;8530;49.540;8.576;2022-08-19T03:58:26;23.67;;;21.07;;
16826;SDS011;8530;49.540;8.576;2022-08-19T04:00:55;23.07;;;20.60;;
16826;SDS011;8530;49.540;8.576;2022-08-19T04:03:22;25.20;;;22.30;;
16826;SDS011;8530;49.540;8.576;2022-08-19T04:05:49;23.10;;;20.57;;
16826;SDS011;8530;49.540;8.576;2022-08-19T04:08:16;26.53;;;20.80;;
16826;SDS011;8530;49.540;8.576;2022-08-19T04:10:45;25.17;;;21.70;;
16826;SDS011;8530;49.540;8.576;2022-08-19T04:13:13;26.20;;;23.27;;
16826;SDS011;8530;49.540;8.576;2022-08-19T04:15:41;28.60;;;23.87;;
16826;SDS011;8530;49.540;8.576;2022-08-19T04:18:10;29.97;;;23.07;;
16826;SDS011;8530;49.540;8.576;2022-08-19T04:20:40;23.67;;;21.07;;
16826;SDS011;8530;49.540;8.576;2022-08-19T04:23:09;29.33;;;23.70;;
16826;SDS011;8530;49.540;8.576;2022-08-19T04:25:37;21.83;;;19.50;;
16826;SDS011;8530;49.540;8.576;2022-08-19T04:28:04;27.87;;;25.03;;
16826;SDS011;8530;49.540;8.576;2022-08-19T04:30:37;28.20;;;24.23;;
16826;SDS011;8530;49.540;8.576;2022-08-19T04:33:05;25.60;;;21.53;;
16826;SDS011;8530;49.540;8.576;2022-08-19T04:35:34;25.77;;;22.30;;
16826;SDS011;8530;49.540;8.576;2022-08-19T04:38:02;25.37;;;21.80;;
16826;SDS011;8530;49.540;8.576;2022-08-19T04:40:29;26.90;;;22.03;;
16826;SDS011;8530;49.540;8.576;2022-08-19T04:43:13;26.83;;;22.70;;
16826;SDS011;8530;49.540;8.576;2022-08-19T04:45:41;22.50;;;20.30;;
16826;SDS011;8530;49.540;8.576;2022-08-19T04:48:09;24.50;;;21.90;;
16826;SDS011;8530;49.540;8.576;2022-08-19T04:50:36;25.47;;;22.67;;
16826;SDS011;8530;49.540;8.576;2022-08-19T04:53:06;23.47;;;20.97;;
16826;SDS011;8530;49.540;8.576;2022-08-19T04:55:32;24.03;;;21.27;;
16826;SDS011;8530;49.540;8.576;2022-08-19T04:58:00;25.83;;;22.80;;
16826;SDS011;8530;49.540;8.576;2022-08-19T05:00:27;26.67;;;23.80;;
16826;SDS011;8530;49.540;8.576;2022-08-19T05:02:55;26.10;;;23.33;;
16826;SDS011;8530;49.540;8.576;2022-08-19T05:05:22;24.50;;;21.83;;
16826;SDS011;8530;49.540;8.576;2022-08-19T05:07:49;23.93;;;18.93;;
16826;SDS011;8530;49.540;8.576;2022-08-19T05:10:15;22.90;;;20.50;;
16826;SDS011;8530;49.540;8.576;2022-08-19T05:12:42;24.40;;;20.37;;
16826;SDS011;8530;49.540;8.576;2022-08-19T05:15:11;22.73;;;17.93;;
16826;SDS011;8530;49.540;8.576;2022-08-19T05:17:38;24.33;;;21.00;;
16826;SDS011;8530;49.540;8.576;2022-08-19T05:20:27;23.40;;;20.03;;
16826;SDS011;8530;49.540;8.576;2022-08-19T05:23:12;23.30;;;20.10;;
16826;SDS011;8530;49.540;8.576;2022-08-19T05:25:40;23.20;;;20.73;;
16826;SDS011;8530;49.540;8.576;2022-08-19T05:28:07;22.27;;;19.87;;
16826;SDS011;8530;49.540;8.576;2022-08-19T05:30:34;23.93;;;20.17;;
16826;SDS011;8530;49.540;8.576;2022-08-19T05:33:00;23.50;;;21.00;;
16826;SDS011;8530;49.540;8.576;2022-08-19T05:35:28;26.03;;;21.67;;
16826;SDS011;8530;49.540;8.576;2022-08-19T05:37:55;21.07;;;18.80;;
16826;SDS011;8530;49.540;8.576;2022-08-19T05:40:22;23.13;;;20.63;;
16826;SDS011;8530;49.540;8.576;2022-08-19T05:42:49;24.20;;;19.80;;
16826;SDS011;8530;49.540;8.576;2022-08-19T05:45:17;25.27;;;21.70;;
16826;SDS011;8530;49.540;8.576;2022-08-19T05:47:43;22.47;;;19.20;;
16826;SDS011;8530;49.540;8.576;2022-08-19T05:50:11;22.70;;;20.30;;
16826;SDS011;8530;49.540;8.576;2022-08-19T05:52:39;25.57;;;21.77;;
16826;SDS011;8530;49.540;8.576;2022-08-19T05:55:06;25.40;;;21.13;;
16826;SDS011;8530;49.540;8.576;2022-08-19T05:57:33;20.10;;;18.00;;
16826;SDS011;8530;49.540;8.576;2022-08-19T06:00:00;23.23;;;18.43;;
16826;SDS011;8530;49.540;8.576;2022-08-19T06:02:29;21.23;;;18.93;;
16826;SDS011;8530;49.540;8.576;2022-08-19T06:04:56;20.30;;;18.33;;
16826;SDS011;8530;49.540;8.576;2022-08-19T06:07:23;21.93;;;18.93;;
16826;SDS011;8530;49.540;8.576;2022-08-19T06:09:51;20.60;;;18.47;;
16826;SDS011;8530;49.540;8.576;2022-08-19T06:12:18;18.73;;;16.10;;
16826;SDS011;8530;49.540;8.576;2022-08-19T06:14:44;21.47;;;18.23;;
16826;SDS011;8530;49.540;8.576;2022-08-19T06:17:11;18.13;;;16.20;;
16826;SDS011;8530;49.540;8.576;2022-08-19T06:19:38;20.23;;;16.70;;
16826;SDS011;8530;49.540;8.576;2022-08-19T06:22:06;18.37;;;16.10;;
16826;SDS011;8530;49.540;8.576;2022-08-19T06:24:32;16.63;;;14.70;;
16826;SDS011;8530;49.540;8.576;2022-08-19T06:27:01;18.27;;;16.00;;
16826;SDS011;8530;49.540;8.576;2022-08-19T06:29:30;17.43;;;15.27;;
16826;SDS011;8530;49.540;8.576;2022-08-19T06:31:59;16.33;;;14.53;;
16826;SDS011;8530;49.540;8.576;2022-08-19T06:34:28;17.67;;;15.87;;
16826;SDS011;8530;49.540;8.576;2022-08-19T06:36:56;15.60;;;14.00;;
16826;SDS011;8530;49.540;8.576;2022-08-19T06:39:26;16.33;;;14.57;;
16826;SDS011;8530;49.540;8.576;2022-08-19T06:41:56;19.20;;;13.90;;
16826;SDS011;8530;49.540;8.576;2022-08-19T06:44:27;16.73;;;15.00;;
16826;SDS011;8530;49.540;8.576;2022-08-19T06:47:01;17.50;;;13.63;;
16826;SDS011;8530;49.540;8.576;2022-08-19T06:49:29;19.43;;;14.83;;
16826;SDS011;8530;49.540;8.576;2022-08-19T06:51:57;15.40;;;13.10;;
16826;SDS011;8530;49.540;8.576;2022-08-19T06:54:24;15.53;;;13.93;;
16826;SDS011;8530;49.540;8.576;2022-08-19T06:56:53;16.33;;;14.63;;
16826;SDS011;8530;49.540;8.576;2022-08-19T06:59:21;14.97;;;13.47;;
16826;SDS011;8530;49.540;8.576;2022-08-19T07:01:54;14.30;;;12.80;;
16826;SDS011;8530;49.540;8.576;2022-08-19T07:04:23;14.87;;;13.37;;
16826;SDS011;8530;49.540;8.576;2022-08-19T07:06:56;15.80;;;13.30;;
16826;SDS011;8530;49.540;8.576;2022-08-19T07:09:24;15.50;;;13.90;;
16826;SDS011;8530;49.540;8.576;2022-08-19T07:11:55;16.50;;;12.87;;
16826;SDS011;8530;49.540;8.576;2022-08-19T07:14:23;17.80;;;12.00;;
16826;SDS011;8530;49.540;8.576;2022-08-19T07:16:51;13.77;;;12.40;;
16826;SDS011;8530;49.540;8.576;2022-08-19T07:19:21;13.63;;;11.93;;
16826;SDS011;8530;49.540;8.576;2022-08-19T07:21:52;13.47;;;12.17;;
16826;SDS011;8530;49.540;8.576;2022-08-19T07:24:19;19.00;;;13.07;;
16826;SDS011;8530;49.540;8.576;2022-08-19T07:26:49;14.30;;;12.60;;
16826;SDS011;8530;49.540;8.576;2022-08-19T07:29:17;16.23;;;12.17;;
16826;SDS011;8530;49.540;8.576;2022-08-19T07:31:47;14.23;;;12.77;;
16826;SDS011;8530;49.540;8.576;2022-08-19T07:34:16;12.70;;;11.40;;
16826;SDS011;8530;49.540;8.576;2022-08-19T07:36:44;13.67;;;12.27;;
16826;SDS011;8530;49.540;8.576;2022-08-19T07:39:12;15.10;;;12.20;;
16826;SDS011;8530;49.540;8.576;2022-08-19T07:41:40;12.03;;;10.83;;
16826;SDS011;8530;49.540;8.576;2022-08-19T07:44:07;13.33;;;11.27;;
16826;SDS011;8530;49.540;8.576;2022-08-19T07:46:36;12.93;;;11.43;;
16826;SDS011;8530;49.540;8.576;2022-08-19T07:49:05;14.00;;;11.93;;
16826;SDS011;8530;49.540;8.576;2022-08-19T07:51:34;11.50;;;10.30;;
16826;SDS011;8530;49.540;8.576;2022-08-19T07:54:01;19.07;;;11.53;;
16826;SDS011;8530;49.540;8.576;2022-08-19T07:56:28;16.17;;;11.93;;
16826;SDS011;8530;49.540;8.576;2022-08-19T07:58:55;10.23;;;9.33;;
16826;SDS011;8530;49.540;8.576;2022-08-19T08:01:22;12.47;;;11.10;;
16826;SDS011;8530;49.540;8.576;2022-08-19T08:03:59;12.43;;;10.67;;
16826;SDS011;8530;49.540;8.576;2022-08-19T08:06:45;13.87;;;10.00;;
16826;SDS011;8530;49.540;8.576;2022-08-19T08:09:31;13.30;;;9.03;;
16826;SDS011;8530;49.540;8.576;2022-08-19T08:12:00;12.90;;;9.43;;
16826;SDS011;8530;49.540;8.576;2022-08-19T08:14:32;11.63;;;10.23;;
16826;SDS011;8530;49.540;8.576;2022-08-19T08:17:01;13.60;;;9.83;;
16826;SDS011;8530;49.540;8.576;2022-08-19T08:19:29;11.37;;;9.70;;
16826;SDS011;8530;49.540;8.576;2022-08-19T08:21:58;14.13;;;9.27;;
16826;SDS011;8530;49.540;8.576;2022-08-19T08:24:26;12.80;;;9.57;;
16826;SDS011;8530;49.540;8.576;2022-08-19T08:26:53;15.67;;;11.50;;
16826;SDS011;8530;49.540;8.576;2022-08-19T08:29:21;11.03;;;8.93;;
16826;SDS011;8530;49.540;8.576;2022-08-19T08:31:47;12.13;;;9.60;;
16826;SDS011;8530;49.540;8.576;2022-08-19T08:34:14;10.83;;;9.57;;
16826;SDS011;8530;49.540;8.576;2022-08-19T08:36:42;11.20;;;9.80;;
16826;SDS011;8530;49.540;8.576;2022-08-19T08:39:12;11.33;;;10.27;;
16826;SDS011;8530;49.540;8.576;2022-08-19T08:41:44;11.30;;;9.87;;
16826;SDS011;8530;49.540;8.576;2022-08-19T08:44:14;10.57;;;9.47;;
16826;SDS011;8530;49.540;8.576;2022-08-19T08:46:45;10.57;;;9.47;;
16826;SDS011;8530;49.540;8.576;2022-08-19T08:49:22;13.73;;;8.57;;
16826;SDS011;8530;49.540;8.576;2022-08-19T08:51:57;8.50;;;7.37;;
16826;SDS011;8530;49.540;8.576;2022-08-19T08:54:30;8.57;;;6.33;;
16826;SDS011;8530;49.540;8.576;2022-08-19T08:57:02;7.83;;;6.50;;
16826;SDS011;8530;49.540;8.576;2022-08-19T08:59:34;6.97;;;6.20;;
16826;SDS011;8530;49.540;8.576;2022-08-19T09:02:03;7.77;;;6.17;;
16826;SDS011;8530;49.540;8.576;2022-08-19T09:04:30;7.13;;;6.43;;
16826;SDS011;8530;49.540;8.576;2022-08-19T09:06:59;11.63;;;6.23;;
16826;SDS011;8530;49.540;8.576;2022-08-19T09:09:40;5.53;;;5.03;;
16826;SDS011;8530;49.540;8.576;2022-08-19T09:12:10;6.67;;;5.97;;
16826;SDS011;8530;49.540;8.576;2022-08-19T09:14:45;8.20;;;6.13;;
16826;SDS011;8530;49.540;8.576;2022-08-19T09:17:16;7.10;;;6.20;;
16826;SDS011;8530;49.540;8.576;2022-08-19T09:19:50;9.50;;;7.50;;
16826;SDS011;8530;49.540;8.576;2022-08-19T09:22:23;7.43;;;5.80;;
16826;SDS011;8530;49.540;8.576;2022-08-19T09:24:53;11.33;;;7.10;;
16826;SDS011;8530;49.540;8.576;2022-08-19T09:27:20;9.03;;;6.10;;
16826;SDS011;8530;49.540;8.576;2022-08-19T09:29:50;7.30;;;6.60;;
16826;SDS011;8530;49.540;8.576;2022-08-19T09:32:17;8.97;;;6.90;;
16826;SDS011;8530;49.540;8.576;2022-08-19T09:34:44;7.70;;;6.80;;
16826;SDS011;8530;49.540;8.576;2022-08-19T09:37:11;11.23;;;6.47;;
16826;SDS011;8530;49.540;8.576;2022-08-19T09:39:38;7.80;;;6.20;;
16826;SDS011;8530;49.540;8.576;2022-08-19T09:42:07;7.90;;;6.70;;
16826;SDS011;8530;49.540;8.576;2022-08-19T09:44:37;8.93;;;7.27;;
16826;SDS011;8530;49.540;8.576;2022-08-19T09:47:04;7.57;;;6.00;;
16826;SDS011;8530;49.540;8.576;2022-08-19T09:49:31;10.10;;;6.43;;
16826;SDS011;8530;49.540;8.576;2022-08-19T09:51:59;6.50;;;5.90;;
16826;SDS011;8530;49.540;8.576;2022-08-19T09:54:26;7.43;;;6.63;;
16826;SDS011;8530;49.540;8.576;2022-08-19T09:56:53;6.03;;;5.37;;
16826;SDS011;8530;49.540;8.576;2022-08-19T09:59:23;7.73;;;5.90;;
16826;SDS011;8530;49.540;8.576;2022-08-19T10:01:49;7.03;;;6.33;;
16826;SDS011;8530;49.540;8.576;2022-08-19T10:04:17;6.07;;;5.47;;
16826;SDS011;8530;49.540;8.576;2022-08-19T10:06:44;9.70;;;5.63;;
16826;SDS011;8530;49.540;8.576;2022-08-19T10:09:12;5.77;;;5.20;;
16826;SDS011;8530;49.540;8.576;2022-08-19T10:11:41;13.00;;;6.07;;
16826;SDS011;8530;49.540;8.576;2022-08-19T10:14:10;6.90;;;6.30;;
16826;SDS011;8530;49.540;8.576;2022-08-19T10:16:40;9.63;;;5.93;;
16826;SDS011;8530;49.540;8.576;2022-08-19T10:19:08;7.27;;;5.87;;
16826;SDS011;8530;49.540;8.576;2022-08-19T10:21:35;8.97;;;7.83;;
16826;SDS011;8530;49.540;8.576;2022-08-19T10:24:05;7.57;;;5.47;;
16826;SDS011;8530;49.540;8.576;2022-08-19T10:26:33;6.03;;;5.40;;
16826;SDS011;8530;49.540;8.576;2022-08-19T10:29:02;6.60;;;5.33;;
16826;SDS011;8530;49.540;8.576;2022-08-19T10:31:31;12.30;;;5.10;;
16826;SDS011;8530;49.540;8.576;2022-08-19T10:34:00;8.67;;;5.70;;
16826;SDS011;8530;49.540;8.576;2022-08-19T10:36:28;6.70;;;6.00;;
16826;SDS011;8530;49.540;8.576;2022-08-19T10:38:57;7.00;;;6.30;;
16826;SDS011;8530;49.540;8.576;2022-08-19T10:41:27;7.73;;;5.60;;
16826;SDS011;8530;49.540;8.576;2022-08-19T10:43:55;11.20;;;5.13;;
16826;SDS011;8530;49.540;8.576;2022-08-19T10:46:25;6.33;;;5.73;;
16826;SDS011;8530;49.540;8.576;2022-08-19T10:48:56;6.30;;;5.60;;
16826;SDS011;8530;49.540;8.576;2022-08-19T10:51:24;6.97;;;5.53;;
16826;SDS011;8530;49.540;8.576;2022-08-19T10:54:08;9.40;;;6.17;;
16826;SDS011;8530;49.540;8.576;2022-08-19T10:56:35;9.43;;;5.77;;
16826;SDS011;8530;49.540;8.576;2022-08-19T10:59:17;7.97;;;7.17;;
16826;SDS011;8530;49.540;8.576;2022-08-19T11:01:49;6.27;;;5.67;;
16826;SDS011;8530;49.540;8.576;2022-08-19T11:04:17;8.90;;;8.00;;
16826;SDS011;8530;49.540;8.576;2022-08-19T11:06:47;7.60;;;6.77;;
16826;SDS011;8530;49.540;8.576;2022-08-19T11:09:14;8.53;;;7.77;;
16826;SDS011;8530;49.540;8.576;2022-08-19T11:11:42;8.27;;;7.50;;
16826;SDS011;8530;49.540;8.576;2022-08-19T11:14:10;9.70;;;6.80;;
16826;SDS011;8530;49.540;8.576;2022-08-19T11:16:40;8.40;;;6.13;;
16826;SDS011;8530;49.540;8.576;2022-08-19T11:19:09;9.17;;;7.67;;
16826;SDS011;8530;49.540;8.576;2022-08-19T11:21:38;9.30;;;7.43;;
16826;SDS011;8530;49.540;8.576;2022-08-19T11:24:08;7.53;;;6.80;;
16826;SDS011;8530;49.540;8.576;2022-08-19T11:26:37;9.70;;;7.47;;
16826;SDS011;8530;49.540;8.576;2022-08-19T11:29:05;10.70;;;7.37;;
16826;SDS011;8530;49.540;8.576;2022-08-19T11:31:36;9.10;;;8.20;;
16826;SDS011;8530;49.540;8.576;2022-08-19T11:34:06;7.77;;;7.07;;
16826;SDS011;8530;49.540;8.576;2022-08-19T11:36:37;8.97;;;7.47;;
16826;SDS011;8530;49.540;8.576;2022-08-19T11:39:05;9.33;;;7.23;;
16826;SDS011;8530;49.540;8.576;2022-08-19T11:41:33;8.37;;;7.57;;
16826;SDS011;8530;49.540;8.576;2022-08-19T11:44:00;15.23;;;6.83;;
16826;SDS011;8530;49.540;8.576;2022-08-19T11:46:28;8.17;;;7.37;;
16826;SDS011;8530;49.540;8.576;2022-08-19T11:48:55;8.40;;;7.70;;
16826;SDS011;8530;49.540;8.576;2022-08-19T11:51:22;8.90;;;7.80;;
16826;SDS011;8530;49.540;8.576;2022-08-19T11:53:50;9.00;;;8.10;;
16826;SDS011;8530;49.540;8.576;2022-08-19T11:56:18;7.47;;;6.43;;
16826;SDS011;8530;49.540;8.576;2022-08-19T11:58:47;8.73;;;7.80;;
16826;SDS011;8530;49.540;8.576;2022-08-19T12:01:16;22.43;;;8.90;;
16826;SDS011;8530;49.540;8.576;2022-08-19T12:03:44;8.30;;;7.50;;
16826;SDS011;8530;49.540;8.576;2022-08-19T12:06:12;8.57;;;7.73;;
16826;SDS011;8530;49.540;8.576;2022-08-19T12:08:41;9.40;;;8.50;;
16826;SDS011;8530;49.540;8.576;2022-08-19T12:11:08;10.00;;;8.17;;
16826;SDS011;8530;49.540;8.576;2022-08-19T12:13:37;9.43;;;8.53;;
16826;SDS011;8530;49.540;8.576;2022-08-19T12:16:08;7.80;;;7.10;;
16826;SDS011;8530;49.540;8.576;2022-08-19T12:18:38;9.90;;;7.00;;
16826;SDS011;8530;49.540;8.576;2022-08-19T12:21:07;8.43;;;7.60;;
16826;SDS011;8530;49.540;8.576;2022-08-19T12:23:36;7.90;;;7.03;;
16826;SDS011;8530;49.540;8.576;2022-08-19T12:26:03;6.83;;;6.23;;
16826;SDS011;8530;49.540;8.576;2022-08-19T12:28:30;8.27;;;7.47;;
16826;SDS011;8530;49.540;8.576;2022-08-19T12:30:57;6.53;;;5.93;;
16826;SDS011;8530;49.540;8.576;2022-08-19T12:33:25;8.53;;;6.97;;
16826;SDS011;8530;49.540;8.576;2022-08-19T12:35:53;8.30;;;7.50;;
16826;SDS011;8530;49.540;8.576;2022-08-19T12:38:21;7.83;;;7.03;;
16826;SDS011;8530;49.540;8.576;2022-08-19T12:40:49;7.90;;;7.10;;
16826;SDS011;8530;49.540;8.576;2022-08-19T12:43:16;7.67;;;6.97;;
16826;SDS011;8530;49.540;8.576;2022-08-19T12:45:44;7.50;;;6.77;;
16826;SDS011;8530;49.540;8.576;2022-08-19T12:48:11;6.80;;;6.20;;
16826;SDS011;8530;49.540;8.576;2022-08-19T12:50:40;11.80;;;6.97;;
16826;SDS011;8530;49.540;8.576;2022-08-19T12:53:07;6.47;;;5.50;;
16826;SDS011;8530;49.540;8.576;2022-08-19T12:55:34;6.73;;;6.03;;
16826;SDS011;8530;49.540;8.576;2022-08-19T12:58:01;8.73;;;7.10;;
16826;SDS011;8530;49.540;8.576;2022-08-19T13:00:27;8.17;;;7.33;;
16826;SDS011;8530;49.540;8.576;2022-08-19T13:02:55;10.70;;;7.77;;
16826;SDS011;8530;49.540;8.576;2022-08-19T13:05:24;7.60;;;6.90;;
16826;SDS011;8530;49.540;8.576;2022-08-19T13:07:54;8.27;;;7.47;;
16826;SDS011;8530;49.540;8.576;2022-08-19T13:10:26;8.33;;;6.10;;
16826;SDS011;8530;49.540;8.576;2022-08-19T13:12:54;6.83;;;6.23;;
16826;SDS011;8530;49.540;8.576;2022-08-19T13:15:22;10.00;;;6.90;;
16826;SDS011;8530;49.540;8.576;2022-08-19T13:17:53;10.40;;;5.70;;
16826;SDS011;8530;49.540;8.576;2022-08-19T13:20:21;6.77;;;6.07;;
16826;SDS011;8530;49.540;8.576;2022-08-19T13:22:48;6.60;;;6.00;;
16826;SDS011;8530;49.540;8.576;2022-08-19T13:25:16;7.17;;;6.33;;
16826;SDS011;8530;49.540;8.576;2022-08-19T13:27:45;7.07;;;6.33;;
16826;SDS011;8530;49.540;8.576;2022-08-19T13:30:13;7.13;;;5.90;;
16826;SDS011;8530;49.540;8.576;2022-08-19T13:32:59;6.20;;;5.60;;
16826;SDS011;8530;49.540;8.576;2022-08-19T13:35:39;6.90;;;5.40;;
16826;SDS011;8530;49.540;8.576;2022-08-19T13:38:07;5.23;;;4.73;;
16826;SDS011;8530;49.540;8.576;2022-08-19T13:40:35;5.03;;;4.53;;
16826;SDS011;8530;49.540;8.576;2022-08-19T13:43:03;6.20;;;5.70;;
16826;SDS011;8530;49.540;8.576;2022-08-19T13:45:32;7.73;;;5.50;;
16826;SDS011;8530;49.540;8.576;2022-08-19T13:48:00;7.03;;;5.23;;
16826;SDS011;8530;49.540;8.576;2022-08-19T13:50:31;6.27;;;5.67;;
16826;SDS011;8530;49.540;8.576;2022-08-19T13:52:59;5.87;;;5.13;;
16826;SDS011;8530;49.540;8.576;2022-08-19T13:55:29;5.30;;;4.90;;
16826;SDS011;8530;49.540;8.576;2022-08-19T13:57:59;5.53;;;4.80;;
16826;SDS011;8530;49.540;8.576;2022-08-19T14:00:27;10.83;;;5.43;;
16826;SDS011;8530;49.540;8.576;2022-08-19T14:02:55;5.60;;;5.10;;
16826;SDS011;8530;49.540;8.576;2022-08-19T14:05:24;8.67;;;6.10;;
16826;SDS011;8530;49.540;8.576;2022-08-19T14:07:52;8.20;;;5.83;;
16826;SDS011;8530;49.540;8.576;2022-08-19T14:10:19;7.50;;;5.93;;
16826;SDS011;8530;49.540;8.576;2022-08-19T14:12:46;6.20;;;5.60;;
16826;SDS011;8530;49.540;8.576;2022-08-19T14:15:15;6.83;;;5.40;;
16826;SDS011;8530;49.540;8.576;2022-08-19T14:17:43;6.37;;;5.47;;
16826;SDS011;8530;49.540;8.576;2022-08-19T14:20:11;6.37;;;5.30;;
16826;SDS011;8530;49.540;8.576;2022-08-19T14:22:40;5.20;;;4.63;;
16826;SDS011;8530;49.540;8.576;2022-08-19T14:25:08;8.13;;;5.13;;
16826;SDS011;8530;49.540;8.576;2022-08-19T14:27:38;5.50;;;4.80;;
16826;SDS011;8530;49.540;8.576;2022-08-19T14:30:06;6.37;;;5.77;;
16826;SDS011;8530;49.540;8.576;2022-08-19T14:32:36;6.10;;;5.40;;
16826;SDS011;8530;49.540;8.576;2022-08-19T14:35:03;6.37;;;5.77;;
16826;SDS011;8530;49.540;8.576;2022-08-19T14:37:32;5.30;;;4.80;;
16826;SDS011;8530;49.540;8.576;2022-08-19T14:40:00;5.93;;;4.97;;
16826;SDS011;8530;49.540;8.576;2022-08-19T14:42:26;5.57;;;5.07;;
16826;SDS011;8530;49.540;8.576;2022-08-19T14:44:53;8.53;;;5.87;;
16826;SDS011;8530;49.540;8.576;2022-08-19T14:47:23;6.03;;;5.43;;
16826;SDS011;8530;49.540;8.576;2022-08-19T14:49:51;6.37;;;5.80;;
16826;SDS011;8530;49.540;8.576;2022-08-19T14:52:18;7.90;;;4.97;;
16826;SDS011;8530;49.540;8.576;2022-08-19T14:54:45;7.10;;;4.90;;